Time;durP1;ratioP1;P1;durP2;ratioP2;P2;SDS_P1;SDS_P2;PMS_P1;PMS_P2;Temp;Humidity;BMP_temperature;BMP_pressure;BME280_temperature;BME280_humidity;BME280_pressure;Samples;Min_cycle;Max_cycle;Signal;HPM_P1;HPM_P2
2022/08/22 00:00:12;;;;;;;2.70;1.60;;;;;;;21.11;43.19;97113.69;5036702;27;20103;-77
2022/08/22 00:02:44;;;;;;;;;;;;;;;20.97;43.80;97114.94;5008421;27;20197;-77
2022/08/22 00:05:20;;;;;;;1.70;1.40;;;;;;;21.03;43.52;97111.03;4990959;28;20515;-77
2022/08/22 00:07:50;;;;;;;1.95;1.75;;;;;;;21.04;43.80;97108.09;5008488;27;20640;-77
2022/08/22 00:10:21;;;;;;;2.92;1.70;;;;;;;21.05;44.32;97103.56;5028193;27;20192;-77
2022/08/22 00:12:53;;;;;;;1.88;1.67;;;;;;;20.97;44.25;97102.47;5022428;28;20201;-76
2022/08/22 00:15:32;;;;;;;3.25;1.52;;;;;;;20.87;44.40;97106.25;5044491;27;20647;-77
2022/08/22 00:18:37;;;;;;;2.17;1.65;;;;;;;20.82;44.70;97100.31;4981255;27;20290;-77
2022/08/22 00:21:17;;;;;;;1.95;1.55;;;;;;;20.91;44.67;97103.75;5047808;27;20191;-76
2022/08/22 00:23:52;;;;;;;4.05;2.03;;;;;;;20.74;44.94;97097.34;5060164;27;20162;-77
2022/08/22 00:26:28;;;;;;;2.63;1.75;;;;;;;20.69;44.08;97092.22;5011349;27;20814;-77
2022/08/22 00:29:02;;;;;;;2.38;1.90;;;;;;;20.73;44.57;97097.66;5047053;27;20637;-77
2022/08/22 00:31:27;;;;;;;2.05;1.80;;;;;;;20.87;44.53;97094.84;4995019;28;20360;-77
2022/08/22 00:34:14;;;;;;;3.78;1.55;;;;;;;20.70;44.38;97088.50;5026888;27;20265;-77
2022/08/22 00:36:43;;;;;;;4.00;1.65;;;;;;;20.87;43.60;97095.66;5007831;28;20197;-77
2022/08/22 00:39:16;;;;;;;1.70;1.55;;;;;;;20.78;44.36;97092.22;5008211;28;20294;-77
2022/08/22 00:41:50;;;;;;;2.42;1.73;;;;;;;20.81;44.54;97098.78;4991298;28;20150;-77
2022/08/22 00:44:34;;;;;;;4.68;1.48;;;;;;;20.73;44.47;97090.53;5040463;27;20639;-77
2022/08/22 00:47:37;;;;;;;3.80;1.58;;;;;;;20.75;44.44;97091.00;4996445;28;20732;-77
2022/08/22 00:50:06;;;;;;;2.92;1.30;;;;;;;20.87;44.24;97092.22;5011663;27;20169;-77
2022/08/22 00:52:52;;;;;;;2.17;1.65;;;;;;;20.88;44.54;97086.59;5015774;28;20330;-76
2022/08/22 00:55:30;;;;;;;3.28;1.58;;;;;;;20.95;44.01;97083.50;4997749;27;20281;-77
2022/08/22 00:58:11;;;;;;;2.53;1.35;;;;;;;20.80;44.15;97086.63;4990909;28;20268;-76
2022/08/22 01:00:49;;;;;;;2.20;1.23;;;;;;;20.86;44.46;97086.16;5027795;27;20205;-77
2022/08/22 01:03:18;;;;;;;1.77;1.38;;;;;;;20.91;44.72;97083.34;5019977;27;20236;-77
2022/08/22 01:06:00;;;;;;;3.17;1.60;;;;;;;20.92;44.40;97084.09;5008346;27;20184;-77
2022/08/22 01:08:45;;;;;;;3.85;1.60;;;;;;;20.77;44.73;97085.38;5001859;28;20704;-77
2022/08/22 01:11:46;;;;;;;5.13;1.65;;;;;;;20.72;44.94;97086.31;5007317;27;20220;-77
2022/08/22 01:14:26;;;;;;;2.00;1.40;;;;;;;20.88;45.07;97085.84;5027792;27;20229;-77
2022/08/22 01:17:10;;;;;;;1.95;1.30;;;;;;;20.61;45.44;97085.03;5024237;27;20644;-77
2022/08/22 01:20:10;;;;;;;2.47;1.38;;;;;;;20.59;45.63;97082.69;5025282;27;20574;-77
2022/08/22 01:22:57;;;;;;;3.03;1.98;;;;;;;20.64;45.13;97084.44;5011035;27;20278;-77
2022/08/22 01:25:31;;;;;;;2.65;1.30;;;;;;;20.54;46.01;97080.22;5005688;28;20213;-77
2022/08/22 01:28:16;;;;;;;2.38;1.50;;;;;;;20.45;46.02;97071.50;5007635;28;20278;-77
2022/08/22 01:31:06;;;;;;;4.28;1.30;;;;;;;20.45;46.19;97074.16;5009779;27;20297;-77
2022/08/22 01:33:43;;;;;;;2.67;1.30;;;;;;;20.43;46.18;97065.00;5036761;27;20191;-77
2022/08/22 01:36:33;;;;;;;2.28;1.30;;;;;;;20.33;46.61;97066.06;5047836;27;20203;-77
2022/08/22 01:39:31;;;;;;;3.50;1.55;;;;;;;20.40;46.48;97061.84;5048581;27;20218;-77
2022/08/22 01:42:09;;;;;;;2.05;1.35;;;;;;;20.33;46.79;97064.19;4988039;27;20367;-77
2022/08/22 01:44:56;;;;;;;1.92;1.38;;;;;;;20.20;46.46;97067.75;5029076;27;20213;-77
2022/08/22 01:47:47;;;;;;;3.55;1.48;;;;;;;20.02;46.50;97059.78;5026938;27;20204;-77
2022/08/22 01:50:37;;;;;;;2.00;1.45;;;;;;;20.05;46.36;97065.53;4965558;28;20365;-77
2022/08/22 01:53:21;;;;;;;2.05;1.17;;;;;;;19.99;46.50;97065.69;5021261;28;20650;-77
2022/08/22 01:56:01;;;;;;;2.97;1.40;;;;;;;20.03;46.59;97060.56;5005748;28;20237;-77
2022/08/22 01:58:29;;;;;;;2.70;1.30;;;;;;;19.99;46.88;97065.69;4990751;28;20271;-77
2022/08/22 02:01:00;;;;;;;1.85;1.23;;;;;;;19.88;47.37;97067.09;5006012;28;20717;-77
2022/08/22 02:03:31;;;;;;;2.55;1.30;;;;;;;19.85;47.49;97062.41;5006858;28;20190;-77
2022/08/22 02:06:07;;;;;;;3.50;1.17;;;;;;;19.83;47.88;97056.66;5010455;27;20610;-77
2022/08/22 02:08:36;;;;;;;2.88;1.60;;;;;;;19.79;47.93;97066.25;4988306;28;20205;-77
2022/08/22 02:11:05;;;;;;;1.67;1.33;;;;;;;19.71;48.18;97065.13;5026147;28;20216;-77
2022/08/22 02:13:45;;;;;;;2.53;1.35;;;;;;;19.55;48.36;97061.34;5007029;28;20186;-77
2022/08/22 02:16:36;;;;;;;2.42;1.50;;;;;;;19.42;48.62;97060.38;5029801;28;20259;-77
2022/08/22 02:19:14;;;;;;;2.92;1.48;;;;;;;19.45;48.70;97067.69;5010098;28;20683;-77
2022/08/22 02:21:52;;;;;;;2.28;1.25;;;;;;;19.50;48.73;97064.91;5044066;28;20278;-77
2022/08/22 02:24:41;;;;;;;2.50;1.10;;;;;;;19.34;48.59;97061.09;4987677;28;20099;-77
2022/08/22 02:27:09;;;;;;;2.35;1.30;;;;;;;19.51;48.63;97063.03;4996929;28;20191;-77
2022/08/22 02:29:42;;;;;;;2.42;1.55;;;;;;;19.35;48.49;97057.41;4991880;28;20166;-77
2022/08/22 02:32:27;;;;;;;2.22;1.35;;;;;;;19.24;48.98;97051.59;4992052;28;20173;-77
2022/08/22 02:34:52;;;;;;;4.45;1.85;;;;;;;19.36;48.29;97056.28;4978242;28;20205;-77
2022/08/22 02:37:36;;;;;;;2.17;1.50;;;;;;;19.23;49.06;97050.81;5008721;28;20562;-77
2022/08/22 02:40:26;;;;;;;4.10;1.20;;;;;;;19.21;49.26;97057.47;5014331;27;20211;-77
2022/08/22 02:43:42;;;;;;;3.28;1.40;;;;;;;19.10;49.15;97054.31;5030239;27;20267;-77
2022/08/22 02:46:10;;;;;;;4.75;1.50;;;;;;;19.18;49.50;97053.59;5014795;28;20572;-76
2022/08/22 02:49:26;;;;;;;1.73;1.30;;;;;;;19.00;50.10;97052.69;5006323;28;20190;-77
2022/08/22 02:52:09;;;;;;;3.10;1.40;;;;;;;18.98;49.71;97054.09;4893413;28;20527;-77
2022/08/22 02:55:00;;;;;;;2.25;1.30;;;;;;;18.92;49.66;97050.00;4928905;28;20541;-77
2022/08/22 02:57:36;;;;;;;3.63;1.60;;;;;;;18.83;49.33;97053.38;4928832;28;20259;-77
2022/08/22 03:00:14;;;;;;;2.05;1.38;;;;;;;18.87;49.77;97050.94;4945003;28;20212;-77
2022/08/22 03:03:15;;;;;;;4.72;2.58;;;;;;;18.61;50.64;97045.44;4945297;28;20657;-77
2022/08/22 03:05:43;;;;;;;2.95;1.40;;;;;;;18.78;50.20;97045.56;4916763;28;20201;-77
2022/08/22 03:08:33;;;;;;;1.33;1.23;;;;;;;18.72;50.70;97044.91;4913682;28;20197;-77
2022/08/22 03:11:03;;;;;;;2.80;1.90;;;;;;;18.65;51.06;97038.50;4912053;28;20170;-77
2022/08/22 03:13:37;;;;;;;2.50;1.70;;;;;;;18.61;51.24;97053.34;4912981;28;20119;-77
2022/08/22 03:16:09;;;;;;;2.15;1.65;;;;;;;18.62;51.17;97047.00;4893960;28;20205;-77
2022/08/22 03:18:52;;;;;;;3.33;1.80;;;;;;;18.48;51.19;97037.28;4877391;28;20221;-77
2022/08/22 03:21:35;;;;;;;2.45;1.55;;;;;;;18.52;51.21;97048.81;4912001;28;20612;-77
2022/08/22 03:24:11;;;;;;;2.78;1.40;;;;;;;18.57;51.24;97044.47;5009411;28;20185;-76
2022/08/22 03:26:48;;;;;;;2.47;1.40;;;;;;;18.42;51.55;97041.13;4994335;27;20711;-77
2022/08/22 03:29:37;;;;;;;2.13;1.52;;;;;;;18.34;51.93;97047.09;5015034;28;20224;-77
2022/08/22 03:32:13;;;;;;;2.60;1.73;;;;;;;18.38;51.57;97042.00;4996721;27;20170;-77
2022/08/22 03:35:06;;;;;;;5.10;1.83;;;;;;;18.28;51.94;97043.81;5039609;27;20127;-77
2022/08/22 03:37:41;;;;;;;2.90;1.73;;;;;;;18.10;52.28;97039.44;4996120;28;20209;-77
2022/08/22 03:40:19;;;;;;;2.70;1.70;;;;;;;17.99;52.57;97036.22;4978022;27;20322;-77
2022/08/22 03:42:58;;;;;;;2.75;1.58;;;;;;;18.08;52.63;97037.09;5012286;27;20252;-77
2022/08/22 03:45:27;;;;;;;3.17;1.60;;;;;;;18.05;53.04;97037.69;5027179;27;20587;-77
2022/08/22 03:48:16;;;;;;;3.83;2.33;;;;;;;17.94;52.60;97036.34;5028642;27;20212;-76
2022/08/22 03:51:12;;;;;;;3.60;1.70;;;;;;;17.98;52.22;97039.19;5028289;27;20270;-77
2022/08/22 03:54:03;;;;;;;2.63;2.10;;;;;;;18.01;53.15;97035.94;5028880;27;20355;-77
2022/08/22 03:56:37;;;;;;;3.03;1.83;;;;;;;18.02;52.96;97040.91;4998157;28;20108;-76
2022/08/22 03:59:18;;;;;;;2.70;1.63;;;;;;;17.94;53.08;97037.13;5017429;27;20245;-77
2022/08/22 04:02:05;;;;;;;4.30;1.83;;;;;;;17.88;52.89;97042.81;5017664;27;20179;-77
2022/08/22 04:04:59;;;;;;;2.80;1.80;;;;;;;17.74;53.41;97040.16;5011705;27;20201;-77
2022/08/22 04:07:43;;;;;;;2.30;1.80;;;;;;;18.03;53.31;97046.97;5025491;27;20357;-77
2022/08/22 04:10:27;;;;;;;2.30;1.75;;;;;;;18.05;52.58;97045.59;4991882;27;20212;-76
2022/08/22 04:13:18;;;;;;;3.75;1.75;;;;;;;17.96;52.60;97036.84;4994224;28;20270;-77
2022/08/22 04:16:01;;;;;;;2.40;1.42;;;;;;;18.19;51.71;97039.53;5007972;28;20155;-77
2022/08/22 04:18:46;;;;;;;2.40;1.40;;;;;;;18.20;51.89;97036.59;5025577;28;20251;-77
2022/08/22 04:21:15;;;;;;;3.00;1.40;;;;;;;18.30;51.53;97040.84;4977409;27;20309;-76
2022/08/22 04:24:01;;;;;;;2.08;1.40;;;;;;;18.22;52.07;97044.22;5045837;27;20547;-77
2022/08/22 04:26:45;;;;;;;2.88;1.50;;;;;;;18.13;52.42;97044.13;5007326;28;20201;-77
2022/08/22 04:29:13;;;;;;;2.15;1.50;;;;;;;18.18;52.58;97051.13;4985603;28;20182;-76
2022/08/22 04:31:51;;;;;;;2.38;1.38;;;;;;;18.05;52.43;97053.50;5034229;27;20754;-77
2022/08/22 04:34:28;;;;;;;2.58;1.38;;;;;;;18.05;52.11;97050.88;4991438;28;20174;-77
2022/08/22 04:37:37;;;;;;;3.20;1.60;;;;;;;17.93;52.54;97054.00;5009340;28;20205;-76
2022/08/22 04:40:15;;;;;;;3.05;1.40;;;;;;;18.07;52.90;97051.34;4965987;28;20273;-77
2022/08/22 04:42:46;;;;;;;1.65;1.50;;;;;;;18.00;52.95;97052.84;5008258;28;20315;-77
2022/08/22 04:45:43;;;;;;;2.20;1.50;;;;;;;17.90;53.42;97051.19;5019394;27;20270;-77
2022/08/22 04:48:18;;;;;;;2.33;1.48;;;;;;;17.89;53.75;97058.31;4994735;27;20200;-77
2022/08/22 04:50:56;;;;;;;2.42;1.63;;;;;;;17.97;53.49;97054.19;5007834;27;20356;-76
2022/08/22 04:53:47;;;;;;;3.08;1.77;;;;;;;17.90;53.55;97049.31;5019510;27;20161;-77
2022/08/22 04:56:37;;;;;;;3.08;1.60;;;;;;;17.88;53.67;97053.34;5014521;27;20161;-77
2022/08/22 04:59:09;;;;;;;2.15;1.60;;;;;;;17.95;53.34;97051.06;5014206;27;20289;-77
2022/08/22 05:01:42;;;;;;;2.55;2.03;;;;;;;17.97;53.19;97051.56;5013831;27;20328;-77
2022/08/22 05:04:11;;;;;;;2.28;1.70;;;;;;;17.92;53.80;97044.56;5013350;27;20260;-76
2022/08/22 05:06:40;;;;;;;2.67;1.60;;;;;;;17.89;53.94;97046.97;4989884;28;20264;-77
2022/08/22 05:09:15;;;;;;;2.55;1.63;;;;;;;17.89;53.83;97049.59;4993632;28;20202;-77
2022/08/22 05:11:40;;;;;;;;;;;;;;;17.77;54.13;97053.50;4994957;28;20263;-77
2022/08/22 05:14:35;;;;;;;2.38;1.83;;;;;;;17.90;54.08;97049.31;5034619;27;20227;-77
2022/08/22 05:17:03;;;;;;;4.07;2.00;;;;;;;18.08;54.12;97055.56;4973094;28;20279;-77
2022/08/22 05:19:36;;;;;;;2.78;1.70;;;;;;;17.99;54.42;97057.31;5009375;27;20200;-77
2022/08/22 05:22:02;;;;;;;3.25;1.60;;;;;;;18.14;53.91;97058.84;4992886;28;20205;-77
2022/08/22 05:24:41;;;;;;;3.53;1.40;;;;;;;18.10;53.51;97047.34;5006320;27;20801;-77
2022/08/22 05:27:23;;;;;;;2.53;1.40;;;;;;;18.17;53.32;97052.22;4980419;27;20300;-77
2022/08/22 05:29:52;;;;;;;2.25;1.50;;;;;;;18.32;52.96;97054.53;5009946;27;20197;-77
2022/08/22 05:33:01;;;;;;;2.40;1.58;;;;;;;18.20;53.55;97056.88;5008947;27;20188;-77
2022/08/22 05:35:40;;;;;;;2.00;1.40;;;;;;;18.25;54.07;97054.13;4938022;28;20262;-77
2022/08/22 05:38:08;;;;;;;3.22;1.80;;;;;;;18.44;53.26;97061.88;4983234;28;20254;-77
2022/08/22 05:40:36;;;;;;;3.08;1.98;;;;;;;18.60;53.15;97059.72;5023108;27;20250;-76
2022/08/22 05:43:02;;;;;;;3.38;1.85;;;;;;;18.69;52.71;97060.53;4973906;28;20285;-77
2022/08/22 05:45:28;;;;;;;2.88;1.33;;;;;;;18.81;52.18;97060.00;5018167;28;20384;-77
2022/08/22 05:47:59;;;;;;;3.75;1.55;;;;;;;18.93;51.52;97067.41;4998036;28;20269;-77
2022/08/22 05:50:37;;;;;;;3.45;1.30;;;;;;;18.94;51.41;97069.75;5005767;28;20277;-77
2022/08/22 05:53:07;;;;;;;2.78;1.40;;;;;;;19.11;51.10;97066.44;5007423;28;20218;-77
2022/08/22 05:55:39;;;;;;;1.48;1.20;;;;;;;19.14;50.87;97068.47;4989262;28;20274;-76
2022/08/22 05:58:24;;;;;;;3.75;1.70;;;;;;;19.11;50.50;97066.44;4990190;28;20209;-77
2022/08/22 06:00:54;;;;;;;2.47;1.20;;;;;;;19.37;50.06;97071.84;5019836;28;20195;-77
2022/08/22 06:03:26;;;;;;;3.20;1.30;;;;;;;19.46;49.65;97070.00;4993998;28;20351;-77
2022/08/22 06:05:54;;;;;;;2.95;1.40;;;;;;;19.62;49.09;97066.94;4991510;28;20309;-77
2022/08/22 06:08:43;;;;;;;3.30;1.33;;;;;;;19.74;49.02;97071.66;4994145;28;20709;-77
2022/08/22 06:11:17;;;;;;;2.90;1.38;;;;;;;19.75;49.08;97065.31;5004763;28;20665;-77
2022/08/22 06:13:51;;;;;;;2.90;1.38;;;;;;;19.82;48.98;97068.28;5002446;28;20579;-77
2022/08/22 06:16:22;;;;;;;2.85;1.58;;;;;;;19.94;48.63;97076.41;5019118;28;20217;-77
2022/08/22 06:18:49;;;;;;;2.47;1.30;;;;;;;20.19;48.32;97077.56;4992080;28;20639;-77
2022/08/22 06:21:23;;;;;;;1.42;1.20;;;;;;;20.23;48.11;97084.88;5028590;28;20279;-77
2022/08/22 06:23:52;;;;;;;2.67;1.20;;;;;;;20.36;48.27;97082.09;4998181;28;20565;-77
2022/08/22 06:26:18;;;;;;;3.38;1.75;;;;;;;20.47;48.22;97076.50;5008678;28;20693;-77
2022/08/22 06:28:46;;;;;;;3.38;1.67;;;;;;;20.55;47.77;97088.94;5014741;28;20160;-76
2022/08/22 06:31:20;;;;;;;2.75;1.70;;;;;;;20.55;47.64;97088.94;4998785;27;20199;-77
2022/08/22 06:34:03;;;;;;;2.92;1.23;;;;;;;20.63;47.58;97082.91;4989086;28;20170;-77
2022/08/22 06:36:30;;;;;;;2.55;1.30;;;;;;;20.90;46.92;97083.66;4996641;28;20220;-77
2022/08/22 06:39:01;;;;;;;3.10;1.67;;;;;;;20.86;47.15;97085.38;5044503;27;20195;-77
2022/08/22 06:41:29;;;;;;;1.88;1.30;;;;;;;21.02;47.07;97088.31;5041169;28;20253;-77
2022/08/22 06:43:55;;;;;;;3.28;1.60;;;;;;;21.13;48.04;97090.31;4994388;27;20230;-77
2022/08/22 06:46:22;;;;;;;3.17;1.40;;;;;;;21.35;46.64;97095.69;4993918;28;20096;-77
2022/08/22 06:48:48;;;;;;;3.50;1.33;;;;;;;21.41;46.54;97089.91;5023356;27;20272;-77
2022/08/22 06:51:15;;;;;;;7.05;1.67;;;;;;;21.48;46.14;97095.53;5005769;27;20223;-77
2022/08/22 06:53:46;;;;;;;3.50;1.52;;;;;;;21.51;46.13;97089.59;5006528;27;20181;-77
2022/08/22 06:56:33;;;;;;;2.05;1.45;;;;;;;21.70;45.34;97088.44;4991795;27;20301;-77
2022/08/22 06:59:04;;;;;;;3.88;1.33;;;;;;;21.91;45.19;97096.44;5009568;28;20288;-77
2022/08/22 07:01:36;;;;;;;2.35;1.27;;;;;;;22.15;44.44;97093.19;4981706;27;20666;-76
2022/08/22 07:04:05;;;;;;;3.70;1.42;;;;;;;22.22;44.71;97097.97;4990361;27;20174;-77
2022/08/22 07:06:34;;;;;;;3.10;1.27;;;;;;;22.44;44.06;97094.28;5029224;27;20299;-77
2022/08/22 07:09:01;;;;;;;2.35;1.17;;;;;;;22.76;43.68;97097.31;5005406;28;20353;-76
2022/08/22 07:11:28;;;;;;;2.22;1.50;;;;;;;22.68;42.80;97111.41;4993397;28;20209;-77
2022/08/22 07:13:57;;;;;;;4.15;1.50;;;;;;;22.82;42.90;97106.59;5016041;27;20239;-78
2022/08/22 07:16:31;;;;;;;1.50;1.20;;;;;;;23.03;42.75;97105.78;5013397;27;20196;-77
2022/08/22 07:18:57;;;;;;;4.47;1.40;;;;;;;23.26;42.14;97108.88;5029900;27;20195;-77
2022/08/22 07:21:31;;;;;;;1.85;1.30;;;;;;;23.31;42.25;97103.38;4996608;27;20650;-77
2022/08/22 07:24:00;;;;;;;3.05;1.92;;;;;;;23.61;41.86;97103.19;4996025;27;20107;-77
2022/08/22 07:26:28;;;;;;;3.30;1.40;;;;;;;23.68;41.76;97111.38;5013323;27;20273;-77
2022/08/22 07:28:56;;;;;;;3.50;1.40;;;;;;;23.83;40.95;97109.97;5012794;27;20276;-77
2022/08/22 07:31:22;;;;;;;2.45;1.42;;;;;;;24.09;40.66;97107.75;5012856;27;20183;-77
2022/08/22 07:33:50;;;;;;;4.88;1.70;;;;;;;24.19;40.65;97108.41;5012823;27;20632;-77
2022/08/22 07:36:29;;;;;;;3.90;1.60;;;;;;;24.14;40.43;97108.63;4996019;27;20238;-77
2022/08/22 07:39:21;;;;;;;1.67;1.30;;;;;;;24.47;40.24;97111.91;5029869;27;20205;-77
2022/08/22 07:42:14;;;;;;;2.47;1.27;;;;;;;24.42;39.80;97108.69;5029553;27;20279;-77
2022/08/22 07:44:58;;;;;;;1.38;1.27;;;;;;;24.92;39.40;97112.00;5005861;28;20251;-77
2022/08/22 07:47:30;;;;;;;2.35;1.48;;;;;;;25.09;38.93;97110.91;4992581;28;20194;-77
2022/08/22 07:49:58;;;;;;;1.90;1.33;;;;;;;25.41;38.46;97103.75;4992460;28;20212;-77
2022/08/22 07:52:24;;;;;;;2.05;1.58;;;;;;;25.37;37.94;97108.22;4992537;28;20201;-77
2022/08/22 07:55:18;;;;;;;3.00;1.45;;;;;;;25.64;38.12;97103.19;4991614;28;20105;-77
2022/08/22 07:57:57;;;;;;;2.10;1.35;;;;;;;25.82;37.83;97109.69;4971305;27;20863;-77
2022/08/22 08:00:23;;;;;;;1.70;1.60;;;;;;;26.41;37.25;97107.97;5005005;28;20341;-76
2022/08/22 08:02:55;;;;;;;3.05;1.75;;;;;;;26.51;36.42;97109.28;4992055;28;20481;-77
2022/08/22 08:05:22;;;;;;;2.05;1.73;;;;;;;26.47;36.35;97109.22;5006930;27;20220;-77
2022/08/22 08:07:51;;;;;;;2.63;1.35;;;;;;;26.69;36.38;97109.69;4995244;27;20295;-77
2022/08/22 08:10:21;;;;;;;4.03;1.63;;;;;;;26.60;36.41;97103.75;4994310;28;20221;-77
2022/08/22 08:12:50;;;;;;;1.80;1.50;;;;;;;26.89;36.14;97111.22;4991797;28;20348;-77
2022/08/22 08:15:18;;;;;;;2.65;1.80;;;;;;;27.23;35.52;97102.66;4984504;28;20163;-77
2022/08/22 08:17:44;;;;;;;1.63;1.50;;;;;;;27.61;35.74;97106.38;5011692;27;20205;-77
2022/08/22 08:20:16;;;;;;;1.95;1.60;;;;;;;27.83;34.98;97099.47;5012114;27;20338;-77
2022/08/22 08:22:43;;;;;;;1.98;1.52;;;;;;;27.86;34.05;97104.06;5011842;27;20578;-78
2022/08/22 08:25:12;;;;;;;3.25;1.73;;;;;;;27.88;34.48;97093.81;4994740;27;20174;-77
2022/08/22 08:30:39;;;;;;;4.07;1.98;;;;;;;28.04;34.50;97098.25;5014031;27;20268;-76
2022/08/22 08:33:06;;;;;;;2.45;2.17;;;;;;;28.18;33.60;97103.78;4978339;27;20268;-77
2022/08/22 08:35:37;;;;;;;3.95;2.00;;;;;;;28.49;33.52;97101.88;5027898;27;20120;-77
2022/08/22 08:38:07;;;;;;;3.45;1.80;;;;;;;28.60;33.27;97096.69;5011266;27;20258;-76
2022/08/22 08:40:32;;;;;;;3.25;1.80;;;;;;;29.04;32.24;97106.75;5011411;27;20287;-76
2022/08/22 08:44:02;;;;;;;2.30;1.70;;;;;;;29.14;32.20;97104.16;5046538;27;20687;-75
2022/08/22 08:46:50;;;;;;;3.05;2.38;;;;;;;29.31;31.47;97102.81;4949014;28;20183;-76
2022/08/22 08:49:31;;;;;;;2.38;1.80;;;;;;;29.72;31.51;97107.38;4974327;28;20297;-76
2022/08/22 08:52:24;;;;;;;2.47;1.80;;;;;;;29.86;31.38;97099.44;4991022;28;20185;-75
2022/08/22 08:55:07;;;;;;;2.90;1.95;;;;;;;29.87;31.20;97094.84;5007341;28;20331;-76
2022/08/22 08:57:49;;;;;;;2.22;2.00;;;;;;;30.20;30.27;97098.50;5009123;27;20205;-76
2022/08/22 09:00:26;;;;;;;4.05;1.80;;;;;;;30.60;28.72;97094.06;4994117;27;20180;-76
2022/08/22 09:03:12;;;;;;;3.35;2.30;;;;;;;30.61;28.81;97101.00;5027628;27;20161;-76
2022/08/22 09:06:03;;;;;;;2.13;1.92;;;;;;;31.01;28.53;97099.22;5010220;28;20258;-76
2022/08/22 09:08:34;;;;;;;2.20;2.00;;;;;;;31.26;27.59;97107.31;5027713;27;20184;-77
2022/08/22 09:11:33;;;;;;;2.72;2.20;;;;;;;31.12;27.59;97101.91;5046198;27;20638;-76
2022/08/22 09:14:24;;;;;;;4.22;2.83;;;;;;;31.43;27.17;97100.44;5027212;27;20250;-76
2022/08/22 09:17:08;;;;;;;2.95;2.20;;;;;;;31.84;26.09;97094.66;5027567;27;20188;-75
2022/08/22 09:20:08;;;;;;;2.30;2.10;;;;;;;31.81;25.55;97097.34;5011099;27;20685;-76
2022/08/22 09:23:12;;;;;;;2.35;1.80;;;;;;;31.93;25.30;97099.66;5027713;27;21017;-76
2022/08/22 09:25:50;;;;;;;4.43;2.45;;;;;;;31.97;25.44;97105.03;5010886;27;20185;-76
2022/08/22 09:28:28;;;;;;;2.92;2.10;;;;;;;31.55;27.79;97105.44;5028017;27;20583;-76
2022/08/22 09:30:57;;;;;;;2.53;2.25;;;;;;;31.42;26.64;97098.13;5011050;27;20231;-76
2022/08/22 09:33:32;;;;;;;3.10;2.20;;;;;;;31.34;26.88;97100.03;5010523;27;20628;-76
2022/08/22 09:36:02;;;;;;;2.78;2.20;;;;;;;31.21;27.38;97101.56;4993840;27;20248;-75
2022/08/22 09:38:50;;;;;;;3.20;2.20;;;;;;;30.89;27.41;97092.25;5010992;27;20271;-76
2022/08/22 09:41:26;;;;;;;2.20;2.00;;;;;;;31.27;27.15;97087.31;5027393;27;20646;-76
2022/08/22 09:44:21;;;;;;;3.47;2.15;;;;;;;30.99;26.70;97085.38;4992625;27;20201;-76
2022/08/22 09:46:49;;;;;;;3.53;2.95;;;;;;;30.92;27.00;97086.09;5025612;28;20289;-75
2022/08/22 09:49:44;;;;;;;3.15;1.90;;;;;;;30.37;27.00;97091.69;5023783;28;20189;-76
2022/08/22 09:52:44;;;;;;;3.45;2.50;;;;;;;30.17;27.34;97085.81;5016278;28;20356;-76
2022/08/22 09:55:48;;;;;;;2.60;2.10;;;;;;;30.01;28.43;97083.44;5007034;28;20257;-76
2022/08/22 09:58:32;;;;;;;4.40;2.42;;;;;;;30.09;28.53;97085.00;4952804;28;20247;-75
2022/08/22 10:01:09;;;;;;;3.33;2.20;;;;;;;30.13;27.59;97088.47;5007142;28;20321;-77
2022/08/22 10:03:44;;;;;;;2.35;2.03;;;;;;;30.06;28.14;97080.38;5007302;28;20580;-76
2022/08/22 10:06:11;;;;;;;;;;;;;;;29.93;28.90;97085.28;5004473;28;20239;-76
2022/08/22 10:08:47;;;;;;;2.90;2.15;;;;;;;30.00;28.36;97079.94;4974090;28;20186;-76
2022/08/22 10:11:23;;;;;;;2.53;2.33;;;;;;;30.11;28.14;97081.94;4973797;28;20107;-76
2022/08/22 10:14:07;;;;;;;3.10;2.60;;;;;;;30.13;27.48;97083.09;4990374;28;20262;-76
2022/08/22 10:16:55;;;;;;;2.85;2.10;;;;;;;30.15;26.50;97078.13;4974050;28;20346;-76
2022/08/22 10:19:44;;;;;;;2.72;2.08;;;;;;;30.29;26.12;97080.09;5010803;28;20273;-76
2022/08/22 10:22:28;;;;;;;3.17;2.15;;;;;;;30.37;26.19;97084.41;4994395;28;20262;-76
2022/08/22 10:25:18;;;;;;;4.47;2.42;;;;;;;30.59;25.16;97074.50;4993570;28;20267;-76
2022/08/22 10:28:13;;;;;;;4.22;2.40;;;;;;;30.64;24.93;97078.75;4994132;28;20235;-76
2022/08/22 10:31:00;;;;;;;3.28;2.13;;;;;;;30.51;25.83;97078.31;4994449;28;20556;-77
2022/08/22 10:33:44;;;;;;;2.90;2.30;;;;;;;30.79;25.38;97071.47;4994206;28;20611;-76
2022/08/22 10:36:12;;;;;;;3.35;2.17;;;;;;;31.23;24.56;97067.75;4977482;28;20728;-76
2022/08/22 10:38:43;;;;;;;4.45;2.17;;;;;;;31.31;24.97;97069.28;5010738;28;20284;-76
2022/08/22 10:41:25;;;;;;;4.40;2.38;;;;;;;31.62;23.64;97068.91;5010743;28;20224;-76
2022/08/22 10:43:54;;;;;;;3.05;1.90;;;;;;;32.07;23.93;97061.16;4976706;27;20163;-76
2022/08/22 10:46:29;;;;;;;5.35;2.53;;;;;;;32.03;23.86;97065.75;4993970;28;20174;-76
2022/08/22 10:49:00;;;;;;;3.53;2.58;;;;;;;31.71;23.98;97063.91;4993570;28;20205;-76
2022/08/22 10:51:58;;;;;;;2.83;2.00;;;;;;;31.83;25.03;97062.72;4977082;28;20213;-76
2022/08/22 10:54:32;;;;;;;2.90;2.47;;;;;;;31.81;24.36;97049.66;4994582;27;20631;-75
2022/08/22 10:57:06;;;;;;;3.08;2.30;;;;;;;31.76;24.30;97060.81;5013356;27;20351;-75
2022/08/22 10:59:51;;;;;;;3.65;2.38;;;;;;;31.70;24.12;97057.75;5013620;27;20613;-75
2022/08/22 11:02:37;;;;;;;4.05;2.28;;;;;;;32.21;23.83;97044.94;4996637;27;20304;-76
2022/08/22 11:05:09;;;;;;;3.40;2.65;;;;;;;32.62;22.41;97049.78;5013148;27;20747;-76
2022/08/22 11:08:05;;;;;;;2.10;1.90;;;;;;;33.25;21.57;97043.63;4996777;27;20669;-75
2022/08/22 11:11:25;;;;;;;3.95;2.80;;;;;;;33.39;21.78;97051.59;5013453;27;20253;-75
2022/08/22 11:14:16;;;;;;;3.05;2.50;;;;;;;33.38;21.96;97046.59;4964872;28;20189;-76
2022/08/22 11:16:47;;;;;;;3.08;2.22;;;;;;;33.48;20.84;97047.69;4948568;28;20217;-75
2022/08/22 11:19:34;;;;;;;4.82;2.25;;;;;;;33.41;21.51;97043.84;5012176;27;20244;-75
2022/08/22 11:22:18;;;;;;;4.05;2.47;;;;;;;33.71;21.06;97045.19;5047143;27;20348;-75
2022/08/22 11:24:57;;;;;;;3.20;2.27;;;;;;;33.74;21.07;97041.69;5048619;27;20149;-75
2022/08/22 11:27:43;;;;;;;3.15;2.30;;;;;;;34.12;21.88;97036.25;5030079;27;20202;-75
2022/08/22 11:30:11;;;;;;;3.70;2.78;;;;;;;34.50;20.49;97025.34;5036562;27;20264;-75
2022/08/22 11:33:02;;;;;;;3.35;3.05;;;;;;;34.75;19.43;97026.97;5029991;27;20279;-75
2022/08/22 11:35:36;;;;;;;4.22;2.60;;;;;;;34.49;19.69;97025.75;5048298;27;20244;-75
2022/08/22 11:38:03;;;;;;;2.83;2.10;;;;;;;34.24;19.81;97026.09;5013032;27;20275;-75
2022/08/22 11:40:37;;;;;;;3.10;2.25;;;;;;;33.73;21.75;97026.63;5046503;27;20195;-76
2022/08/22 11:43:27;;;;;;;2.67;2.47;;;;;;;33.54;21.43;97030.66;5029515;27;20288;-75
2022/08/22 11:45:56;;;;;;;2.53;2.20;;;;;;;33.49;21.67;97033.03;5015173;27;20204;-75
2022/08/22 11:49:08;;;;;;;2.53;2.00;;;;;;;33.39;21.61;97024.59;5012555;27;20703;-75
2022/08/22 11:51:48;;;;;;;4.28;2.47;;;;;;;33.70;21.41;97029.38;4912184;28;20272;-75
2022/08/22 11:54:22;;;;;;;3.08;2.70;;;;;;;33.69;21.30;97031.31;4928082;28;20269;-75
2022/08/22 11:56:53;;;;;;;3.28;2.35;;;;;;;33.40;20.64;97020.00;4895947;28;20620;-75
2022/08/22 11:59:19;;;;;;;3.53;2.83;;;;;;;33.51;21.38;97019.88;4916272;28;20247;-76
2022/08/22 12:01:54;;;;;;;2.67;2.20;;;;;;;33.76;20.97;97014.28;4927526;28;20150;-75
2022/08/22 12:04:45;;;;;;;3.30;2.08;;;;;;;34.25;20.09;97011.41;4926764;28;20198;-75
2022/08/22 12:07:30;;;;;;;2.60;2.40;;;;;;;34.71;20.07;97010.03;4915935;28;20325;-75
2022/08/22 12:09:58;;;;;;;;;;;;;;;34.77;20.20;97010.34;4895997;28;20240;-75
2022/08/22 12:12:50;;;;;;;3.80;2.55;;;;;;;35.39;19.03;96997.41;4894803;28;20088;-75
2022/08/22 12:15:31;;;;;;;3.15;2.58;;;;;;;35.70;18.79;97002.66;4944230;28;20254;-76
2022/08/22 12:17:59;;;;;;;2.78;2.58;;;;;;;36.11;18.71;97006.91;4928010;28;20286;-76
2022/08/22 12:20:43;;;;;;;2.85;2.55;;;;;;;36.35;19.03;96997.50;4911903;28;20804;-75
2022/08/22 12:23:20;;;;;;;2.80;2.60;;;;;;;36.82;18.32;96998.44;4927756;28;20718;-75
2022/08/22 12:26:16;;;;;;;2.80;2.50;;;;;;;36.40;17.85;96998.19;4977978;28;20217;-75
2022/08/22 12:29:18;;;;;;;2.53;2.33;;;;;;;35.47;19.93;96995.31;4991840;28;20292;-76
2022/08/22 12:32:12;;;;;;;2.70;2.50;;;;;;;35.22;19.78;96993.81;4975157;28;20166;-75